Terminal Aerodrome Forecast
Issued by NWS Quad Cities IA IL

Home | Current Version | Previous Version | Text Only | Print | Product List | Glossary On
Versions: 1 2 3 4 5 6 7 8 9 10 11 12 13 14 15 16 17 18
000
FTUS43 KDVN 272352
TAFDBQ
TAF
KDBQ 272352Z 2800/2824 17008KT P6SM BKN120
     FM280300 14009KT P6SM VCSH OVC050
     FM280900 16011KT P6SM BKN012
     FM281200 16011KT 5SM -SHRA VCTS OVC006CB
     FM281500 18010KT 3SM -RADZ BR OVC012
     FM282000 22012KT 4SM -SHRA VCTS OVC015CB=

USA.gov is the U.S. government's official web portal to all federal, state and local government web resources and services.